Time;durP1;ratioP1;P1;durP2;ratioP2;P2;SDS_P1;SDS_P2;PMS_P1;PMS_P2;Temp;Humidity;BMP_temperature;BMP_pressure;BME280_temperature;BME280_humidity;BME280_pressure;Samples;Min_cycle;Max_cycle;Signal;HPM_P1;HPM_P2
2021/12/14 00:01:41;;;;;;;19.08;11.13;;;;;;;17.52;50.48;102735.41;5007377;28;20053;-59
2021/12/14 00:04:17;;;;;;;19.70;11.18;;;;;;;17.52;50.27;102737.22;5003034;28;20046;-57
2021/12/14 00:06:47;;;;;;;20.55;11.05;;;;;;;17.53;50.35;102741.66;5012198;28;20050;-56
2021/12/14 00:09:24;;;;;;;18.25;10.70;;;;;;;17.52;50.36;102745.25;5013368;28;20049;-57
2021/12/14 00:12:25;;;;;;;16.00;10.65;;;;;;;17.52;50.32;102738.06;5006914;28;20046;-57
2021/12/14 00:17:41;;;;;;;18.60;10.13;;;;;;;17.49;50.41;102735.63;5006499;28;20108;-57
2021/12/14 00:20:19;;;;;;;19.00;10.55;;;;;;;17.50;50.19;102736.47;5007936;28;20050;-56
2021/12/14 00:25:24;;;;;;;19.83;11.52;;;;;;;17.49;50.36;102742.81;5011247;28;20055;-55
2021/12/14 00:27:52;;;;;;;16.92;10.02;;;;;;;17.47;50.21;102745.59;5004632;28;20043;-56
2021/12/14 00:30:19;;;;;;;15.05;9.60;;;;;;;17.47;50.15;102745.59;5004482;28;20057;-57
2021/12/14 00:32:46;;;;;;;16.73;9.45;;;;;;;17.47;50.33;102750.09;5005950;28;20073;-57
2021/12/14 00:35:14;;;;;;;18.38;10.82;;;;;;;17.45;50.22;102747.53;5007512;28;20046;-56
2021/12/14 00:37:45;;;;;;;17.48;10.52;;;;;;;17.46;50.50;102754.59;5013226;28;20415;-56
2021/12/14 00:40:19;;;;;;;17.70;10.32;;;;;;;17.45;50.48;102760.06;5010880;28;20050;-56
2021/12/14 00:42:46;;;;;;;;;;;;;;;17.46;50.47;102764.47;5010225;28;20080;-55
2021/12/14 00:45:15;;;;;;;19.58;10.90;;;;;;;17.47;50.42;102761.66;5006471;28;20020;-57
2021/12/14 00:47:41;;;;;;;15.20;9.55;;;;;;;17.45;50.50;102752.03;5008853;28;20060;-57
2021/12/14 00:50:09;;;;;;;15.82;9.77;;;;;;;17.44;50.38;102767.22;5006988;28;20096;-58
2021/12/14 00:52:37;;;;;;;17.20;9.82;;;;;;;17.42;50.39;102737.00;5013862;28;20038;-57
2021/12/14 00:55:06;;;;;;;18.63;10.52;;;;;;;17.43;50.46;102732.50;5007932;28;20046;-57
2021/12/14 00:57:36;;;;;;;17.65;10.52;;;;;;;17.43;50.60;102732.50;5007556;28;20073;-56
2021/12/14 01:00:10;;;;;;;13.73;9.38;;;;;;;17.41;50.39;102732.59;5007137;28;20053;-56
2021/12/14 01:02:38;;;;;;;17.92;9.98;;;;;;;17.41;50.75;102729.06;5005949;28;20049;-56
2021/12/14 01:05:31;;;;;;;16.85;10.35;;;;;;;17.39;50.43;102725.63;5012665;28;20072;-56
2021/12/14 01:07:59;;;;;;;15.27;9.57;;;;;;;17.40;50.66;102738.91;5010018;28;20046;-56
2021/12/14 01:10:28;;;;;;;16.15;9.90;;;;;;;17.39;50.29;102728.31;5008587;28;20088;-56
2021/12/14 01:13:00;;;;;;;16.20;9.35;;;;;;;17.38;50.82;102716.72;5002596;28;20054;-55
2021/12/14 01:18:46;;;;;;;13.77;9.23;;;;;;;17.37;50.19;102696.25;5009757;28;20045;-57
2021/12/14 01:21:43;;;;;;;13.68;8.90;;;;;;;17.38;50.86;102706.00;5008654;28;20050;-57
2021/12/14 01:25:09;;;;;;;15.20;9.27;;;;;;;17.36;50.55;102699.88;5013444;28;20053;-57
2021/12/14 01:27:18;;;;;;;12.40;8.50;;;;;;;17.36;50.27;102701.69;5009117;28;20054;-57
2021/12/14 01:29:48;;;;;;;13.80;8.95;;;;;;;17.36;50.68;102713.28;5009461;28;20058;-56
2021/12/14 01:32:15;;;;;;;15.93;9.77;;;;;;;17.35;50.46;102694.63;5009956;28;20052;-56
2021/12/14 01:34:41;;;;;;;13.52;8.50;;;;;;;17.34;50.72;102684.88;5012698;28;20348;-56
2021/12/14 01:37:14;;;;;;;13.50;9.18;;;;;;;17.31;50.75;102693.97;5013388;28;20042;-56
2021/12/14 01:42:14;;;;;;;13.85;8.45;;;;;;;17.31;50.59;102685.94;5005699;28;20046;-56
2021/12/14 01:44:47;;;;;;;13.55;8.85;;;;;;;17.30;50.51;102684.22;5013047;28;20061;-55
2021/12/14 01:47:25;;;;;;;15.20;9.60;;;;;;;17.28;50.72;102692.34;5007910;28;20430;-57
2021/12/14 01:49:53;;;;;;;13.38;8.88;;;;;;;17.28;50.24;102683.44;5008789;28;20073;-55
2021/12/14 01:52:28;;;;;;;11.38;8.35;;;;;;;17.27;50.57;102701.34;5004494;28;20421;-55
2021/12/14 01:55:04;;;;;;;13.77;9.32;;;;;;;17.28;50.25;102702.22;5008859;28;20093;-55
2021/12/14 01:57:34;;;;;;;13.20;8.70;;;;;;;17.27;51.02;102705.84;5009071;28;20051;-56
2021/12/14 02:00:02;;;;;;;13.30;8.80;;;;;;;17.28;50.22;102718.28;5007782;28;20052;-55
2021/12/14 02:02:40;;;;;;;12.38;8.10;;;;;;;17.27;50.77;102720.13;5011116;28;20567;-57
2021/12/14 02:05:33;;;;;;;13.18;8.55;;;;;;;17.25;50.87;102703.28;5006823;28;20054;-55
2021/12/14 02:08:03;;;;;;;12.82;8.32;;;;;;;17.27;50.70;102716.56;5007471;28;20054;-56
2021/12/14 02:10:34;;;;;;;11.27;7.53;;;;;;;17.26;50.96;102713.03;5007659;28;20341;-56
2021/12/14 02:13:02;;;;;;;12.38;8.50;;;;;;;17.25;51.01;102719.38;5009979;28;20100;-55
2021/12/14 02:15:43;;;;;;;12.82;8.45;;;;;;;17.23;50.51;102715.91;5011073;28;20046;-55
2021/12/14 02:18:18;;;;;;;11.63;7.60;;;;;;;17.24;50.58;102704.22;5006132;28;20042;-54
2021/12/14 02:20:52;;;;;;;11.73;8.10;;;;;;;17.24;51.03;102711.41;5006431;28;20124;-57
2021/12/14 02:23:20;;;;;;;12.13;8.32;;;;;;;17.23;51.08;102702.53;5009979;28;20151;-58
2021/12/14 02:25:49;;;;;;;12.07;8.50;;;;;;;17.22;50.52;102699.97;5015815;28;20045;-55
2021/12/14 02:28:18;;;;;;;11.75;8.50;;;;;;;17.22;50.74;102699.97;5005437;28;20060;-57
2021/12/14 02:30:47;;;;;;;12.77;8.60;;;;;;;17.21;50.90;102709.81;5010076;28;20728;-56
2021/12/14 02:33:20;;;;;;;12.73;8.60;;;;;;;17.20;50.68;102702.72;5007012;28;20274;-56
2021/12/14 02:35:49;;;;;;;11.50;8.00;;;;;;;17.21;51.19;102703.59;5006758;28;20041;-55
2021/12/14 02:38:18;;;;;;;11.02;7.93;;;;;;;17.20;51.19;102700.03;5006655;28;20056;-56
2021/12/14 02:41:00;;;;;;;11.48;8.07;;;;;;;17.19;50.77;102690.28;5009559;28;20131;-56
2021/12/14 02:43:32;;;;;;;12.15;8.15;;;;;;;17.19;50.53;102686.75;5006746;28;20064;-57
2021/12/14 02:46:10;;;;;;;10.13;7.95;;;;;;;17.19;50.83;102694.78;5010781;28;20050;-56
2021/12/14 02:48:41;;;;;;;12.00;8.45;;;;;;;17.19;50.95;102681.41;5005339;28;20042;-57
2021/12/14 02:51:12;;;;;;;13.68;9.15;;;;;;;17.17;50.58;102673.47;5008206;28;20416;-57
2021/12/14 02:53:41;;;;;;;12.00;8.52;;;;;;;17.18;50.41;102675.19;5010616;28;20088;-57
2021/12/14 02:56:13;;;;;;;12.63;8.90;;;;;;;17.17;51.07;102676.16;5007205;28;20044;-57
2021/12/14 02:58:40;;;;;;;11.90;8.15;;;;;;;17.17;50.65;102669.94;5004644;28;20456;-57
2021/12/14 03:01:09;;;;;;;14.05;9.23;;;;;;;17.17;50.84;102677.97;5014609;28;20505;-57
2021/12/14 03:03:36;;;;;;;10.95;8.18;;;;;;;17.17;50.92;102667.25;5003569;28;20046;-56
2021/12/14 03:06:06;;;;;;;11.43;8.32;;;;;;;17.17;50.42;102661.91;5005637;28;20046;-57
2021/12/14 03:08:38;;;;;;;10.93;8.18;;;;;;;17.15;50.84;102672.72;5010356;28;20054;-57
2021/12/14 03:11:10;;;;;;;11.70;8.60;;;;;;;17.16;51.03;102665.53;5006549;28;20056;-57
2021/12/14 03:13:48;;;;;;;12.27;9.00;;;;;;;17.14;51.32;102679.03;5012078;28;20140;-56
2021/12/14 03:16:20;;;;;;;10.93;7.82;;;;;;;17.14;50.98;102686.22;5010051;28;20049;-55
2021/12/14 03:18:49;;;;;;;10.45;7.95;;;;;;;17.14;50.90;102692.44;5004733;28;20050;-56
2021/12/14 03:21:33;;;;;;;10.98;7.95;;;;;;;17.15;51.09;102696.81;5007689;28;20045;-57
2021/12/14 03:24:05;;;;;;;11.73;8.10;;;;;;;17.14;50.76;102691.56;5008660;28;20050;-56
2021/12/14 03:26:36;;;;;;;11.70;8.43;;;;;;;17.14;50.77;102700.47;5006465;28;20456;-57
2021/12/14 03:29:09;;;;;;;10.80;8.15;;;;;;;17.13;50.74;102700.59;5009267;28;20064;-55
2021/12/14 03:31:40;;;;;;;10.95;7.95;;;;;;;17.13;50.92;102700.59;5006078;28;20050;-57
2021/12/14 03:34:14;;;;;;;11.48;9.13;;;;;;;17.12;50.60;102698.84;5005882;28;20327;-56
2021/12/14 03:36:55;;;;;;;12.05;8.27;;;;;;;17.12;51.40;102698.84;5007714;28;20143;-57
2021/12/14 03:39:33;;;;;;;11.35;8.32;;;;;;;17.11;51.60;102716.75;5006432;28;20533;-57
2021/12/14 03:42:07;;;;;;;10.57;8.13;;;;;;;17.12;51.50;102720.28;5000103;28;20413;-57
2021/12/14 03:44:38;;;;;;;12.27;8.70;;;;;;;17.10;51.02;102715.03;5010548;28;20057;-57
2021/12/14 03:47:09;;;;;;;11.60;8.07;;;;;;;17.11;50.89;102722.09;5006941;28;20330;-57
2021/12/14 03:49:43;;;;;;;10.63;7.80;;;;;;;17.11;51.32;102721.25;5001700;28;20093;-57
2021/12/14 03:52:11;;;;;;;;;;;;;;;17.10;51.37;102714.19;5006361;28;20164;-55
2021/12/14 03:54:39;;;;;;;9.82;7.45;;;;;;;17.11;51.09;102715.88;5008160;28;20318;-56
2021/12/14 03:57:06;;;;;;;10.40;8.15;;;;;;;17.10;51.36;102717.72;5005425;28;20064;-56
2021/12/14 03:59:33;;;;;;;10.35;7.78;;;;;;;17.09;51.50;102710.66;5008412;28;20446;-57
2021/12/14 04:02:03;;;;;;;12.75;7.68;;;;;;;17.10;50.57;102704.31;5005734;28;20141;-57
2021/12/14 04:04:38;;;;;;;11.10;7.75;;;;;;;17.09;51.33;102709.78;5003441;28;20497;-57
2021/12/14 04:07:09;;;;;;;10.93;7.53;;;;;;;17.09;51.24;102707.09;5006140;28;20050;-57
2021/12/14 04:09:38;;;;;;;8.35;6.85;;;;;;;17.07;51.21;102704.50;5003646;28;21729;-56
2021/12/14 04:12:07;;;;;;;8.75;6.78;;;;;;;17.06;51.09;102702.81;5009476;28;20054;-56
2021/12/14 04:14:40;;;;;;;10.13;7.32;;;;;;;17.07;50.70;102714.38;5005955;28;20064;-57
2021/12/14 04:17:07;;;;;;;9.63;7.13;;;;;;;17.06;50.63;102701.94;5005437;28;20127;-57
2021/12/14 04:19:35;;;;;;;9.35;7.40;;;;;;;17.04;51.28;102707.38;5005145;28;20050;-56
2021/12/14 04:22:07;;;;;;;9.57;7.43;;;;;;;17.05;51.48;102706.44;5006115;28;20064;-56
2021/12/14 04:24:37;;;;;;;10.45;7.60;;;;;;;17.03;51.35;102714.56;5006260;28;20054;-56
2021/12/14 04:27:08;;;;;;;9.43;7.28;;;;;;;17.04;50.91;102710.06;5005932;28;20046;-56
2021/12/14 04:29:34;;;;;;;9.45;6.88;;;;;;;17.03;51.19;102711.03;5007254;28;20345;-56
2021/12/14 04:32:02;;;;;;;9.13;6.90;;;;;;;17.02;51.09;102707.50;5005765;28;20050;-56
2021/12/14 04:34:31;;;;;;;8.38;6.38;;;;;;;17.01;51.49;102700.44;5003536;28;20060;-55
2021/12/14 04:36:58;;;;;;;8.20;6.38;;;;;;;17.02;50.87;102703.97;5003792;28;20454;-56
2021/12/14 04:53:15;;;;;;;9.82;6.68;;;;;;;16.99;51.02;102672.88;5006762;28;20052;-58
2021/12/14 04:55:44;;;;;;;8.35;6.65;;;;;;;16.99;51.35;102680.91;5000079;28;20468;-56
2021/12/14 04:58:12;;;;;;;8.20;6.10;;;;;;;16.98;51.40;102683.69;5008575;28;20433;-56
2021/12/14 05:00:46;;;;;;;8.25;5.80;;;;;;;16.97;50.72;102682.00;5004051;28;20160;-55
2021/12/14 05:03:20;;;;;;;8.40;6.50;;;;;;;16.98;51.38;102681.88;5005538;28;20057;-55
2021/12/14 05:05:50;;;;;;;8.32;6.53;;;;;;;16.98;51.05;102679.19;5005829;28;20345;-57
2021/12/14 05:10:55;;;;;;;9.73;6.05;;;;;;;16.97;51.51;102668.59;5005329;28;20049;-55
2021/12/14 05:13:29;;;;;;;7.88;5.90;;;;;;;16.97;51.04;102673.97;5008039;28;20160;-56
2021/12/14 05:15:56;;;;;;;11.13;5.75;;;;;;;16.96;50.91;102667.72;5004906;28;20046;-56
2021/12/14 05:18:23;;;;;;;8.32;5.97;;;;;;;16.95;51.23;102662.47;5008264;28;20065;-57
2021/12/14 05:20:51;;;;;;;7.97;5.82;;;;;;;16.95;51.34;102670.50;5007719;28;20128;-56
2021/12/14 05:23:26;;;;;;;9.07;5.80;;;;;;;16.94;50.88;102666.97;5007443;28;20052;-55
2021/12/14 05:25:53;;;;;;;7.80;5.63;;;;;;;16.94;51.16;102679.50;5002413;28;20134;-56
2021/12/14 05:28:20;;;;;;;6.95;5.32;;;;;;;16.93;51.21;102680.47;5010053;28;20046;-56
2021/12/14 05:30:52;;;;;;;8.98;5.85;;;;;;;16.93;50.95;102673.28;5008148;28;20056;-57
2021/12/14 05:33:26;;;;;;;7.32;5.30;;;;;;;16.93;51.12;102680.47;5006728;28;20050;-56
2021/12/14 05:35:56;;;;;;;7.63;5.65;;;;;;;16.94;51.36;102687.53;5010339;28;20137;-56
2021/12/14 05:38:39;;;;;;;7.43;5.30;;;;;;;16.93;51.37;102697.41;5012925;28;20076;-56
2021/12/14 05:43:05;;;;;;;8.45;6.18;;;;;;;16.92;50.76;102701.03;5008099;28;20533;-56
2021/12/14 05:43:58;;;;;;;9.90;6.75;;;;;;;16.93;50.75;102691.19;5012102;28;20041;-56
2021/12/14 05:46:26;;;;;;;7.55;5.90;;;;;;;16.93;50.98;102696.53;5000263;28;20056;-56
2021/12/14 05:48:59;;;;;;;7.50;5.13;;;;;;;16.92;50.71;102697.47;5010887;28;20472;-56
2021/12/14 05:51:28;;;;;;;7.50;5.25;;;;;;;16.91;50.55;102696.63;5008475;28;20068;-57
2021/12/14 05:53:56;;;;;;;7.53;5.82;;;;;;;16.91;51.21;102696.63;5001180;28;20074;-55
2021/12/14 05:56:25;;;;;;;7.00;5.53;;;;;;;16.91;50.78;102703.81;5010105;28;20533;-56
2021/12/14 05:58:57;;;;;;;7.70;5.22;;;;;;;16.91;51.20;102698.44;5005893;28;20053;-56
2021/12/14 06:01:27;;;;;;;8.73;5.72;;;;;;;16.90;51.26;102711.00;5007115;28;20446;-56
2021/12/14 06:04:06;;;;;;;8.20;5.55;;;;;;;16.89;50.71;102709.28;5010450;28;20056;-54
2021/12/14 06:06:40;;;;;;;7.90;4.93;;;;;;;16.90;50.84;102707.47;5007459;28;20068;-56
2021/12/14 06:09:18;;;;;;;6.25;4.55;;;;;;;16.89;50.90;102706.59;5000290;28;20149;-56
2021/12/14 06:11:48;;;;;;;7.80;5.65;;;;;;;16.90;51.19;102707.47;5008773;28;20050;-56
2021/12/14 06:14:18;;;;;;;7.70;5.47;;;;;;;16.89;51.06;102700.38;5007652;28;20060;-56
2021/12/14 06:16:46;;;;;;;7.35;4.95;;;;;;;16.88;50.68;102704.84;5012613;28;20046;-56
2021/12/14 06:19:36;;;;;;;7.63;5.63;;;;;;;16.90;51.18;102707.47;5004972;28;20054;-56
2021/12/14 06:22:07;;;;;;;8.15;5.47;;;;;;;16.88;50.56;102712.03;5004193;28;20049;-56
2021/12/14 06:24:37;;;;;;;7.25;5.30;;;;;;;16.86;51.02;102712.16;5011046;28;20050;-57
2021/12/14 06:27:08;;;;;;;7.30;5.15;;;;;;;16.86;51.00;102717.50;5011106;28;20043;-56
2021/12/14 06:29:42;;;;;;;8.02;5.25;;;;;;;16.86;50.53;102712.16;5005867;28;20493;-57
2021/12/14 06:32:21;;;;;;;6.63;5.10;;;;;;;16.85;50.48;102718.47;5003061;28;20345;-56
2021/12/14 06:35:16;;;;;;;6.78;5.00;;;;;;;16.85;50.83;102718.47;5010636;28;20074;-56
2021/12/14 06:38:26;;;;;;;6.93;5.47;;;;;;;16.86;50.37;102732.72;5003717;28;20053;-57
2021/12/14 06:41:07;;;;;;;7.00;5.13;;;;;;;16.86;50.70;102733.56;5003777;28;20058;-57
2021/12/14 06:43:37;;;;;;;7.60;5.18;;;;;;;16.85;51.12;102731.00;5011157;28;20056;-57
2021/12/14 06:46:08;;;;;;;7.30;5.40;;;;;;;16.85;50.51;102736.38;5007672;28;20042;-55
2021/12/14 06:48:44;;;;;;;6.72;5.10;;;;;;;16.84;50.36;102734.63;5006776;28;20050;-56
2021/12/14 06:51:20;;;;;;;8.27;5.32;;;;;;;16.84;50.79;102729.25;5005969;28;20125;-56
2021/12/14 06:53:51;;;;;;;7.97;5.32;;;;;;;16.83;50.80;102730.22;5003922;28;20133;-56
2021/12/14 06:56:21;;;;;;;8.05;5.10;;;;;;;16.83;50.92;102733.75;5004553;28;20069;-56
2021/12/14 06:58:54;;;;;;;8.20;5.35;;;;;;;16.82;50.37;102734.72;5006504;28;20345;-57
2021/12/14 07:01:37;;;;;;;7.93;4.93;;;;;;;16.81;50.47;102738.38;5003905;28;20060;-53
2021/12/14 07:04:10;;;;;;;7.80;4.57;;;;;;;16.81;50.24;102740.19;5008057;28;20049;-54
2021/12/14 07:06:43;;;;;;;8.35;5.20;;;;;;;16.82;50.21;102750.81;5004889;28;20050;-57
2021/12/14 07:09:38;;;;;;;6.90;4.95;;;;;;;16.81;50.66;102743.72;5004175;28;20046;-56
2021/12/14 07:12:13;;;;;;;6.63;5.07;;;;;;;16.81;50.48;102750.91;4998989;28;20248;-56
2021/12/14 07:15:20;;;;;;;6.35;4.78;;;;;;;16.80;50.37;102752.69;5009705;28;20050;-57
2021/12/14 07:17:54;;;;;;;7.13;5.00;;;;;;;16.81;50.97;102751.78;5003805;28;20044;-57
2021/12/14 07:20:27;;;;;;;7.70;5.22;;;;;;;16.78;50.58;102755.50;5006684;28;20077;-57
2021/12/14 07:22:57;;;;;;;8.68;5.10;;;;;;;16.81;50.82;102756.28;5006628;28;20499;-56
2021/12/14 07:25:28;;;;;;;6.43;5.10;;;;;;;16.78;50.93;102752.81;5005903;28;20056;-55
2021/12/14 07:28:13;;;;;;;7.97;5.35;;;;;;;16.77;51.06;102756.47;5008875;28;20042;-55
2021/12/14 07:30:53;;;;;;;7.15;5.00;;;;;;;16.77;50.07;102759.13;5007777;28;20133;-57
2021/12/14 07:33:23;;;;;;;6.70;4.75;;;;;;;16.78;50.26;102768.88;5002480;28;20046;-57
2021/12/14 07:36:05;;;;;;;8.88;5.53;;;;;;;16.76;50.45;102762.78;5001752;28;20484;-57
2021/12/14 07:38:39;;;;;;;7.28;5.25;;;;;;;16.77;50.34;102771.66;5002646;28;20128;-57
2021/12/14 07:41:14;;;;;;;7.05;4.70;;;;;;;16.78;50.85;102768.88;5003081;28;20458;-57
2021/12/14 07:43:49;;;;;;;7.65;5.65;;;;;;;16.77;50.96;102772.53;5007944;28;20078;-55
2021/12/14 07:46:28;;;;;;;11.18;5.68;;;;;;;16.77;50.54;102775.22;5002687;28;20481;-56
2021/12/14 07:49:04;;;;;;;7.93;5.18;;;;;;;16.76;50.33;102770.81;5002459;28;20054;-57
2021/12/14 07:51:34;;;;;;;8.88;5.35;;;;;;;16.77;50.17;102775.22;5004433;28;20129;-56
2021/12/14 07:54:12;;;;;;;7.28;5.35;;;;;;;16.76;51.02;102769.94;5000593;28;20045;-56
2021/12/14 07:56:44;;;;;;;7.15;5.35;;;;;;;16.77;50.37;102785.06;5005564;28;20128;-57
2021/12/14 07:59:26;;;;;;;7.47;5.40;;;;;;;16.75;50.46;102790.50;5006552;28;20826;-57
2021/12/14 08:02:23;;;;;;;8.68;5.28;;;;;;;16.75;50.29;102792.31;5005791;28;20057;-56
2021/12/14 08:05:00;;;;;;;7.95;5.32;;;;;;;16.75;50.25;102798.53;5004346;28;20065;-57
2021/12/14 08:07:29;;;;;;;7.18;5.40;;;;;;;16.75;50.88;102795.84;5004263;28;20334;-55
2021/12/14 08:10:06;;;;;;;8.13;5.70;;;;;;;16.76;51.02;102791.34;5009734;28;20054;-55
2021/12/14 08:12:41;;;;;;;9.23;6.18;;;;;;;16.74;50.59;102795.97;5006846;28;20053;-53
2021/12/14 08:15:30;;;;;;;8.57;6.18;;;;;;;16.74;50.51;102799.50;5007527;28;20405;-56
2021/12/14 08:18:20;;;;;;;8.23;5.45;;;;;;;16.73;50.43;102795.09;5001605;28;20037;-56
2021/12/14 08:21:01;;;;;;;7.55;5.47;;;;;;;16.73;50.54;102796.94;5008485;28;20056;-53
2021/12/14 08:23:36;;;;;;;7.07;5.18;;;;;;;16.75;50.35;102800.34;5000139;28;20141;-55
2021/12/14 08:26:05;;;;;;;8.43;5.70;;;;;;;16.74;49.74;102794.13;5004988;28;20306;-55
2021/12/14 08:28:44;;;;;;;7.43;5.35;;;;;;;16.74;49.95;102802.16;5003611;28;20077;-55
2021/12/14 08:31:10;;;;;;;7.53;5.65;;;;;;;16.75;50.11;102803.88;5006559;28;20062;-54
2021/12/14 08:33:37;;;;;;;6.63;5.25;;;;;;;16.74;50.16;102807.53;5005925;28;20136;-55
2021/12/14 08:36:07;;;;;;;7.68;5.72;;;;;;;16.75;50.33;102805.69;5004963;28;20141;-55
2021/12/14 08:38:35;;;;;;;7.90;5.75;;;;;;;16.74;50.80;102809.34;5005214;28;20137;-54
2021/12/14 08:41:15;;;;;;;7.07;5.63;;;;;;;16.74;50.55;102826.28;5005802;28;20056;-56
2021/12/14 08:43:48;;;;;;;8.45;5.63;;;;;;;16.74;50.32;102822.75;5001783;28;20061;-56
2021/12/14 08:46:26;;;;;;;8.10;5.85;;;;;;;16.74;50.09;102820.06;5002904;28;20414;-57
2021/12/14 08:48:58;;;;;;;8.38;5.75;;;;;;;16.74;49.83;102826.28;5003427;28;20073;-56
2021/12/14 08:51:29;;;;;;;8.38;5.82;;;;;;;16.73;50.42;102819.19;5007026;28;20062;-57
2021/12/14 08:54:04;;;;;;;7.35;5.47;;;;;;;16.75;50.81;102822.63;5007661;28;20145;-56
2021/12/14 08:56:34;;;;;;;7.82;5.63;;;;;;;16.74;50.45;102823.59;5010889;28;20153;-55
2021/12/14 08:59:03;;;;;;;7.75;5.32;;;;;;;16.74;50.08;102823.59;5011708;28;20053;-56
2021/12/14 09:01:31;;;;;;;7.88;5.70;;;;;;;16.74;50.44;102823.59;5007487;28;20144;-56
2021/12/14 09:04:03;;;;;;;7.15;5.03;;;;;;;16.74;50.67;102825.41;5004596;28;20046;-56
2021/12/14 09:06:34;;;;;;;8.65;5.93;;;;;;;16.74;50.13;102826.28;5011262;28;20445;-56
2021/12/14 09:09:08;;;;;;;8.00;5.80;;;;;;;16.73;50.62;102823.69;5010633;28;20659;-55
2021/12/14 09:11:39;;;;;;;8.05;5.65;;;;;;;16.74;50.89;102818.25;5010585;28;20133;-55
2021/12/14 09:14:09;;;;;;;7.75;5.80;;;;;;;16.73;50.59;102813.84;5010366;28;20133;-57
2021/12/14 09:16:37;;;;;;;8.10;5.97;;;;;;;16.73;50.06;102804.97;5001928;28;20145;-55
2021/12/14 09:19:21;;;;;;;8.35;5.55;;;;;;;16.72;50.27;102805.84;5010839;28;20057;-54
2021/12/14 09:21:51;;;;;;;10.52;6.35;;;;;;;16.72;50.24;102809.44;5005097;28;20056;-57
2021/12/14 09:24:21;;;;;;;9.00;6.05;;;;;;;16.72;50.25;102806.75;5009115;28;20077;-57
2021/12/14 09:26:54;;;;;;;9.65;6.15;;;;;;;16.71;49.89;102810.34;5005810;28;20046;-57
2021/12/14 09:29:23;;;;;;;9.48;6.28;;;;;;;16.71;50.24;102806.81;5003796;28;20267;-57
2021/12/14 09:31:53;;;;;;;10.10;6.85;;;;;;;16.72;50.62;102811.22;5010449;28;20054;-57
2021/12/14 09:34:23;;;;;;;9.27;6.68;;;;;;;16.72;50.68;102813.88;5005218;28;20129;-56
2021/12/14 09:36:51;;;;;;;8.20;6.32;;;;;;;16.72;49.63;102811.22;5002485;28;20145;-57
2021/12/14 09:39:26;;;;;;;11.45;6.35;;;;;;;16.71;50.32;102818.38;5011566;28;20444;-54
2021/12/14 09:41:53;;;;;;;10.50;6.05;;;;;;;16.71;50.37;102815.72;5010811;28;20756;-56
2021/12/14 09:44:30;;;;;;;9.77;6.40;;;;;;;16.70;50.09;102815.81;5010343;28;20096;-57
2021/12/14 09:47:03;;;;;;;8.88;6.47;;;;;;;16.70;50.16;102813.16;5010408;28;20133;-56
2021/12/14 09:49:30;;;;;;;9.40;6.28;;;;;;;16.71;50.23;102818.38;5003443;28;20061;-57
2021/12/14 09:52:02;;;;;;;8.13;5.95;;;;;;;16.70;50.23;102819.34;5004514;28;20485;-56
2021/12/14 09:54:30;;;;;;;9.73;6.03;;;;;;;16.71;50.33;102815.72;5003582;28;20045;-57
2021/12/14 09:57:08;;;;;;;9.50;6.47;;;;;;;16.70;50.51;102813.16;5007407;28;20064;-57
2021/12/14 09:59:38;;;;;;;9.98;6.97;;;;;;;16.70;50.65;102814.00;5008275;28;20204;-57
2021/12/14 10:02:15;;;;;;;9.18;6.55;;;;;;;16.70;50.39;102813.16;5005760;28;20089;-57
2021/12/14 10:04:49;;;;;;;9.88;6.70;;;;;;;16.69;50.31;102812.28;5010921;28;20430;-57
2021/12/14 10:07:16;;;;;;;8.15;6.18;;;;;;;16.72;50.57;102812.09;5007585;28;20124;-57
2021/12/14 10:09:48;;;;;;;10.55;7.43;;;;;;;16.70;50.28;102813.16;5006559;28;20106;-57
2021/12/14 10:12:59;;;;;;;11.15;7.22;;;;;;;16.71;51.14;102814.84;5006281;28;20045;-56
2021/12/14 10:15:18;;;;;;;10.45;7.30;;;;;;;16.72;51.05;102808.53;5005351;28;20076;-56
2021/12/14 10:17:46;;;;;;;10.93;7.20;;;;;;;16.73;50.33;102813.00;5008207;28;20160;-57
2021/12/14 10:20:19;;;;;;;10.63;7.03;;;;;;;16.71;50.95;102810.34;5011169;28;20355;-57
2021/12/14 10:22:46;;;;;;;13.90;8.30;;;;;;;16.73;50.93;102815.66;5004309;28;20058;-57
2021/12/14 10:25:16;;;;;;;10.75;7.40;;;;;;;16.72;50.43;102820.13;5010278;28;20058;-57
2021/12/14 10:27:46;;;;;;;14.68;9.02;;;;;;;16.73;51.43;102810.31;5005321;28;20129;-57
2021/12/14 10:30:22;;;;;;;14.40;8.50;;;;;;;16.72;50.99;102812.09;5007728;28;20112;-57
2021/12/14 10:32:49;;;;;;;12.88;8.60;;;;;;;16.73;50.83;102816.53;5007634;28;20085;-57
2021/12/14 10:35:22;;;;;;;16.80;10.38;;;;;;;16.73;51.54;102813.84;5006420;28;20179;-56
2021/12/14 10:38:10;;;;;;;15.82;9.05;;;;;;;16.73;51.34;102815.66;5006554;28;20421;-57
2021/12/14 10:43:26;;;;;;;19.67;9.95;;;;;;;16.73;51.23;102816.53;5008302;28;20472;-56
2021/12/14 10:45:59;;;;;;;15.75;9.48;;;;;;;16.73;51.93;102819.19;5005153;28;20049;-56
2021/12/14 10:48:30;;;;;;;19.50;10.25;;;;;;;16.73;51.79;102816.53;5004975;28;20050;-56
2021/12/14 10:50:59;;;;;;;15.07;9.02;;;;;;;16.74;51.71;102825.41;5007897;28;20054;-54
2021/12/14 10:53:26;;;;;;;14.73;9.40;;;;;;;16.73;51.79;102818.34;5000584;28;20075;-56
2021/12/14 10:55:58;;;;;;;16.92;9.75;;;;;;;16.74;51.43;102822.75;5008460;28;20049;-55
2021/12/14 10:58:27;;;;;;;16.30;9.73;;;;;;;16.74;51.16;102818.25;5007610;28;20048;-55
2021/12/14 11:01:17;;;;;;;15.20;9.57;;;;;;;16.72;51.71;102814.78;5007186;28;20050;-55
2021/12/14 11:03:50;;;;;;;15.68;9.27;;;;;;;16.75;51.75;102811.06;5004838;28;20111;-57
2021/12/14 11:06:23;;;;;;;16.27;9.48;;;;;;;16.74;51.70;102812.88;5006044;28;20046;-56
2021/12/14 11:11:45;;;;;;;15.50;9.43;;;;;;;16.75;51.34;102809.25;5004613;28;20128;-57
2021/12/14 11:14:15;;;;;;;18.48;10.18;;;;;;;16.74;51.36;102802.16;5006979;28;20060;-57
2021/12/14 11:20:11;;;;;;;15.75;9.65;;;;;;;16.74;51.24;102810.19;5002739;28;20046;-56
2021/12/14 11:22:56;;;;;;;15.77;10.23;;;;;;;16.75;50.99;102806.56;5004084;28;20082;-56
2021/12/14 11:25:43;;;;;;;17.40;9.73;;;;;;;16.75;51.26;102814.59;5001547;28;20149;-58
2021/12/14 11:28:15;;;;;;;16.35;10.05;;;;;;;16.75;51.51;102809.25;5006111;28;20039;-56
2021/12/14 11:30:55;;;;;;;17.75;10.15;;;;;;;16.76;51.25;102810.97;5003678;28;20050;-56
2021/12/14 11:33:29;;;;;;;19.23;10.25;;;;;;;16.76;50.95;102807.41;5006493;28;20049;-56
2021/12/14 11:35:58;;;;;;;;;;;;;;;16.74;51.75;102802.16;5003257;28;20042;-53
2021/12/14 11:38:28;;;;;;;22.13;9.98;;;;;;;16.77;50.89;102801.13;5006885;28;20331;-56
2021/12/14 11:40:56;;;;;;;17.13;10.27;;;;;;;16.77;51.27;102799.31;5004621;28;20053;-56
2021/12/14 11:43:25;;;;;;;16.77;10.07;;;;;;;16.76;51.17;102799.38;5003881;28;20481;-56
2021/12/14 11:45:53;;;;;;;17.83;9.77;;;;;;;16.77;51.29;102793.09;5002104;28;20054;-56
2021/12/14 11:48:35;;;;;;;16.33;9.80;;;;;;;16.75;51.47;102795.84;5010716;28;20077;-56
2021/12/14 11:51:06;;;;;;;17.13;10.45;;;;;;;16.75;51.27;102795.84;5011948;28;20058;-57
2021/12/14 11:53:34;;;;;;;17.20;10.93;;;;;;;16.75;51.46;102790.50;5007111;28;20050;-56
2021/12/14 11:56:04;;;;;;;15.00;10.35;;;;;;;16.75;50.79;102790.50;5004473;28;20153;-57
2021/12/14 11:58:36;;;;;;;16.45;9.85;;;;;;;16.75;51.13;102790.50;5004511;28;20100;-57
2021/12/14 12:01:06;;;;;;;16.23;10.65;;;;;;;16.76;50.99;102797.59;5004435;28;20056;-57
2021/12/14 12:03:56;;;;;;;21.02;9.88;;;;;;;16.76;50.81;102797.59;5006679;28;20081;-56
2021/12/14 12:06:43;;;;;;;15.40;9.75;;;;;;;16.76;51.16;102794.91;5003382;28;20121;-56
2021/12/14 12:09:33;;;;;;;17.75;9.57;;;;;;;16.77;50.94;102793.09;5007011;28;20050;-57
2021/12/14 12:12:02;;;;;;;17.35;10.88;;;;;;;16.78;51.04;102792.13;5002170;28;20129;-55
2021/12/14 12:14:43;;;;;;;17.90;10.57;;;;;;;16.76;51.29;102794.91;5003996;28;20165;-57
2021/12/14 12:17:34;;;;;;;14.68;9.25;;;;;;;16.76;51.14;102786.00;5007135;28;20518;-57
2021/12/14 12:20:19;;;;;;;19.83;10.85;;;;;;;16.77;51.48;102793.09;5006093;28;20049;-57
2021/12/14 12:23:07;;;;;;;16.90;10.25;;;;;;;16.76;50.96;102794.03;5002800;28;20361;-56
2021/12/14 12:25:51;;;;;;;18.70;10.98;;;;;;;16.75;51.70;102789.63;5006965;28;20133;-57
2021/12/14 12:28:28;;;;;;;15.77;10.30;;;;;;;16.76;50.66;102794.91;5007770;28;20081;-55